sensor_id;sensor_type;location;lat;lon;timestamp;P1;durP1;ratioP1;P2;durP2;ratioP2
57441;SDS011;43284;47.042;15.498;2023-07-02T00:02:20;7.45;;;3.63;;
57441;SDS011;43284;47.042;15.498;2023-07-02T00:04:46;8.35;;;3.70;;
57441;SDS011;43284;47.042;15.498;2023-07-02T00:07:12;8.32;;;3.17;;
57441;SDS011;43284;47.042;15.498;2023-07-02T00:09:37;8.45;;;3.92;;
57441;SDS011;43284;47.042;15.498;2023-07-02T00:12:03;9.88;;;3.53;;
57441;SDS011;43284;47.042;15.498;2023-07-02T00:14:28;8.38;;;3.47;;
57441;SDS011;43284;47.042;15.498;2023-07-02T00:16:54;6.15;;;3.85;;
57441;SDS011;43284;47.042;15.498;2023-07-02T00:19:19;5.68;;;3.53;;
57441;SDS011;43284;47.042;15.498;2023-07-02T00:21:45;6.50;;;3.50;;
57441;SDS011;43284;47.042;15.498;2023-07-02T00:24:10;8.70;;;3.65;;
57441;SDS011;43284;47.042;15.498;2023-07-02T00:26:36;8.25;;;3.85;;
57441;SDS011;43284;47.042;15.498;2023-07-02T00:29:03;8.90;;;3.50;;
57441;SDS011;43284;47.042;15.498;2023-07-02T00:31:31;5.10;;;3.50;;
57441;SDS011;43284;47.042;15.498;2023-07-02T00:33:56;7.55;;;3.50;;
57441;SDS011;43284;47.042;15.498;2023-07-02T00:36:22;7.93;;;3.90;;
57441;SDS011;43284;47.042;15.498;2023-07-02T00:38:48;5.47;;;3.00;;
57441;SDS011;43284;47.042;15.498;2023-07-02T00:41:14;6.72;;;3.65;;
57441;SDS011;43284;47.042;15.498;2023-07-02T00:43:43;5.25;;;3.25;;
57441;SDS011;43284;47.042;15.498;2023-07-02T00:46:13;5.95;;;3.25;;
57441;SDS011;43284;47.042;15.498;2023-07-02T00:48:52;9.88;;;3.35;;
57441;SDS011;43284;47.042;15.498;2023-07-02T00:53:45;5.88;;;2.88;;
57441;SDS011;43284;47.042;15.498;2023-07-02T00:56:12;6.55;;;3.17;;
57441;SDS011;43284;47.042;15.498;2023-07-02T00:58:39;6.07;;;3.30;;
57441;SDS011;43284;47.042;15.498;2023-07-02T01:01:12;5.05;;;2.72;;
57441;SDS011;43284;47.042;15.498;2023-07-02T01:03:55;7.60;;;3.63;;
57441;SDS011;43284;47.042;15.498;2023-07-02T01:06:25;7.10;;;3.60;;
57441;SDS011;43284;47.042;15.498;2023-07-02T01:08:55;7.93;;;3.65;;
57441;SDS011;43284;47.042;15.498;2023-07-02T01:11:29;6.20;;;3.20;;
57441;SDS011;43284;47.042;15.498;2023-07-02T01:13:59;6.18;;;3.75;;
57441;SDS011;43284;47.042;15.498;2023-07-02T01:16:29;7.43;;;3.97;;
57441;SDS011;43284;47.042;15.498;2023-07-02T01:18:57;7.70;;;4.25;;
57441;SDS011;43284;47.042;15.498;2023-07-02T01:21:29;8.48;;;4.55;;
57441;SDS011;43284;47.042;15.498;2023-07-02T01:23:55;7.30;;;4.35;;
57441;SDS011;43284;47.042;15.498;2023-07-02T01:26:21;5.85;;;3.97;;
57441;SDS011;43284;47.042;15.498;2023-07-02T01:28:46;8.18;;;4.30;;
57441;SDS011;43284;47.042;15.498;2023-07-02T01:31:12;6.07;;;3.70;;
57441;SDS011;43284;47.042;15.498;2023-07-02T01:33:40;8.18;;;3.72;;
57441;SDS011;43284;47.042;15.498;2023-07-02T01:36:07;7.72;;;4.32;;
57441;SDS011;43284;47.042;15.498;2023-07-02T01:38:32;10.07;;;4.20;;
57441;SDS011;43284;47.042;15.498;2023-07-02T01:40:58;9.13;;;3.83;;
57441;SDS011;43284;47.042;15.498;2023-07-02T01:43:23;7.18;;;3.70;;
57441;SDS011;43284;47.042;15.498;2023-07-02T01:45:49;8.02;;;4.00;;
57441;SDS011;43284;47.042;15.498;2023-07-02T01:48:14;7.43;;;3.90;;
57441;SDS011;43284;47.042;15.498;2023-07-02T01:50:40;7.38;;;4.05;;
57441;SDS011;43284;47.042;15.498;2023-07-02T01:53:05;8.32;;;3.67;;
57441;SDS011;43284;47.042;15.498;2023-07-02T01:55:31;5.75;;;3.95;;
57441;SDS011;43284;47.042;15.498;2023-07-02T01:57:56;7.22;;;3.85;;
57441;SDS011;43284;47.042;15.498;2023-07-02T02:00:22;6.75;;;3.92;;
57441;SDS011;43284;47.042;15.498;2023-07-02T02:02:49;7.28;;;3.95;;
57441;SDS011;43284;47.042;15.498;2023-07-02T02:05:15;6.80;;;3.90;;
57441;SDS011;43284;47.042;15.498;2023-07-02T02:07:41;6.32;;;4.13;;
57441;SDS011;43284;47.042;15.498;2023-07-02T02:10:06;9.05;;;3.83;;
57441;SDS011;43284;47.042;15.498;2023-07-02T02:12:34;7.03;;;4.00;;
57441;SDS011;43284;47.042;15.498;2023-07-02T02:14:59;7.50;;;3.88;;
57441;SDS011;43284;47.042;15.498;2023-07-02T02:17:24;7.75;;;4.15;;
57441;SDS011;43284;47.042;15.498;2023-07-02T02:19:50;7.30;;;4.13;;
57441;SDS011;43284;47.042;15.498;2023-07-02T02:22:16;6.72;;;3.92;;
57441;SDS011;43284;47.042;15.498;2023-07-02T02:24:42;7.10;;;3.75;;
57441;SDS011;43284;47.042;15.498;2023-07-02T02:27:07;8.82;;;4.30;;
57441;SDS011;43284;47.042;15.498;2023-07-02T02:29:33;5.55;;;3.40;;
57441;SDS011;43284;47.042;15.498;2023-07-02T02:31:59;8.65;;;4.10;;
57441;SDS011;43284;47.042;15.498;2023-07-02T02:34:25;7.93;;;3.97;;
57441;SDS011;43284;47.042;15.498;2023-07-02T02:36:50;7.88;;;4.22;;
57441;SDS011;43284;47.042;15.498;2023-07-02T02:39:16;7.38;;;4.65;;
57441;SDS011;43284;47.042;15.498;2023-07-02T02:41:41;7.93;;;4.13;;
57441;SDS011;43284;47.042;15.498;2023-07-02T02:44:07;9.73;;;4.05;;
57441;SDS011;43284;47.042;15.498;2023-07-02T02:46:32;8.30;;;4.80;;
57441;SDS011;43284;47.042;15.498;2023-07-02T02:48:58;8.27;;;4.60;;
57441;SDS011;43284;47.042;15.498;2023-07-02T02:51:23;11.45;;;4.38;;
57441;SDS011;43284;47.042;15.498;2023-07-02T02:53:49;7.35;;;4.55;;
57441;SDS011;43284;47.042;15.498;2023-07-02T02:56:14;7.63;;;4.28;;
57441;SDS011;43284;47.042;15.498;2023-07-02T02:58:40;7.15;;;4.15;;
57441;SDS011;43284;47.042;15.498;2023-07-02T03:01:05;7.93;;;4.20;;
57441;SDS011;43284;47.042;15.498;2023-07-02T03:03:36;8.25;;;4.38;;
57441;SDS011;43284;47.042;15.498;2023-07-02T03:06:04;9.80;;;4.22;;
57441;SDS011;43284;47.042;15.498;2023-07-02T03:08:30;9.15;;;4.68;;
57441;SDS011;43284;47.042;15.498;2023-07-02T03:10:56;13.77;;;4.47;;
57441;SDS011;43284;47.042;15.498;2023-07-02T03:13:22;6.88;;;4.05;;
57441;SDS011;43284;47.042;15.498;2023-07-02T03:15:47;8.02;;;3.88;;
57441;SDS011;43284;47.042;15.498;2023-07-02T03:18:13;6.50;;;3.78;;
57441;SDS011;43284;47.042;15.498;2023-07-02T03:20:38;9.50;;;4.72;;
57441;SDS011;43284;47.042;15.498;2023-07-02T03:23:04;6.50;;;3.95;;
57441;SDS011;43284;47.042;15.498;2023-07-02T03:25:29;7.05;;;4.38;;
57441;SDS011;43284;47.042;15.498;2023-07-02T03:27:55;8.38;;;5.28;;
57441;SDS011;43284;47.042;15.498;2023-07-02T03:30:20;8.73;;;4.85;;
57441;SDS011;43284;47.042;15.498;2023-07-02T03:32:46;8.20;;;4.28;;
57441;SDS011;43284;47.042;15.498;2023-07-02T03:35:11;6.43;;;4.28;;
57441;SDS011;43284;47.042;15.498;2023-07-02T03:37:37;7.20;;;4.50;;
57441;SDS011;43284;47.042;15.498;2023-07-02T03:40:02;7.47;;;4.55;;
57441;SDS011;43284;47.042;15.498;2023-07-02T03:42:28;8.55;;;4.43;;
57441;SDS011;43284;47.042;15.498;2023-07-02T03:44:54;7.13;;;4.47;;
57441;SDS011;43284;47.042;15.498;2023-07-02T03:47:19;9.30;;;4.72;;
57441;SDS011;43284;47.042;15.498;2023-07-02T03:49:45;9.85;;;4.78;;
57441;SDS011;43284;47.042;15.498;2023-07-02T03:52:12;7.70;;;4.57;;
57441;SDS011;43284;47.042;15.498;2023-07-02T03:54:38;6.95;;;4.28;;
57441;SDS011;43284;47.042;15.498;2023-07-02T03:57:03;8.18;;;4.80;;
57441;SDS011;43284;47.042;15.498;2023-07-02T03:59:29;8.35;;;4.13;;
57441;SDS011;43284;47.042;15.498;2023-07-02T04:01:54;9.63;;;4.90;;
57441;SDS011;43284;47.042;15.498;2023-07-02T04:04:20;10.38;;;4.95;;
57441;SDS011;43284;47.042;15.498;2023-07-02T04:06:45;9.45;;;5.03;;
57441;SDS011;43284;47.042;15.498;2023-07-02T04:09:11;7.15;;;4.70;;
57441;SDS011;43284;47.042;15.498;2023-07-02T04:11:36;8.90;;;5.30;;
57441;SDS011;43284;47.042;15.498;2023-07-02T04:14:02;9.02;;;5.15;;
57441;SDS011;43284;47.042;15.498;2023-07-02T04:16:27;8.65;;;4.63;;
57441;SDS011;43284;47.042;15.498;2023-07-02T04:18:53;8.60;;;5.00;;
57441;SDS011;43284;47.042;15.498;2023-07-02T04:21:18;9.30;;;4.70;;
57441;SDS011;43284;47.042;15.498;2023-07-02T04:23:44;8.27;;;4.82;;
57441;SDS011;43284;47.042;15.498;2023-07-02T04:26:09;8.55;;;4.97;;
57441;SDS011;43284;47.042;15.498;2023-07-02T04:28:35;10.40;;;5.40;;
57441;SDS011;43284;47.042;15.498;2023-07-02T04:31:00;8.20;;;4.78;;
57441;SDS011;43284;47.042;15.498;2023-07-02T04:33:26;7.88;;;4.85;;
57441;SDS011;43284;47.042;15.498;2023-07-02T04:36:00;8.15;;;4.85;;
57441;SDS011;43284;47.042;15.498;2023-07-02T04:38:26;8.82;;;4.30;;
57441;SDS011;43284;47.042;15.498;2023-07-02T04:40:53;11.68;;;4.95;;
57441;SDS011;43284;47.042;15.498;2023-07-02T04:43:19;8.75;;;5.00;;
57441;SDS011;43284;47.042;15.498;2023-07-02T04:45:44;7.72;;;4.95;;
57441;SDS011;43284;47.042;15.498;2023-07-02T04:48:10;9.07;;;5.10;;
57441;SDS011;43284;47.042;15.498;2023-07-02T04:50:35;8.90;;;5.35;;
57441;SDS011;43284;47.042;15.498;2023-07-02T04:53:01;7.30;;;4.75;;
57441;SDS011;43284;47.042;15.498;2023-07-02T04:55:26;12.57;;;5.30;;
57441;SDS011;43284;47.042;15.498;2023-07-02T04:57:52;8.82;;;5.78;;
57441;SDS011;43284;47.042;15.498;2023-07-02T05:00:18;13.23;;;5.68;;
57441;SDS011;43284;47.042;15.498;2023-07-02T05:02:43;9.10;;;5.22;;
57441;SDS011;43284;47.042;15.498;2023-07-02T05:05:09;10.50;;;5.63;;
57441;SDS011;43284;47.042;15.498;2023-07-02T05:07:35;11.05;;;5.50;;
57441;SDS011;43284;47.042;15.498;2023-07-02T05:10:00;7.43;;;4.85;;
57441;SDS011;43284;47.042;15.498;2023-07-02T05:12:25;8.02;;;4.95;;
57441;SDS011;43284;47.042;15.498;2023-07-02T05:14:51;8.93;;;4.85;;
57441;SDS011;43284;47.042;15.498;2023-07-02T05:17:16;9.85;;;5.30;;
57441;SDS011;43284;47.042;15.498;2023-07-02T05:19:42;10.73;;;5.68;;
57441;SDS011;43284;47.042;15.498;2023-07-02T05:22:08;7.50;;;4.78;;
57441;SDS011;43284;47.042;15.498;2023-07-02T05:24:34;9.60;;;5.40;;
57441;SDS011;43284;47.042;15.498;2023-07-02T05:27:00;9.93;;;4.80;;
57441;SDS011;43284;47.042;15.498;2023-07-02T05:29:25;8.75;;;4.90;;
57441;SDS011;43284;47.042;15.498;2023-07-02T05:31:51;8.30;;;5.15;;
57441;SDS011;43284;47.042;15.498;2023-07-02T05:34:16;9.73;;;5.30;;
57441;SDS011;43284;47.042;15.498;2023-07-02T05:36:42;10.00;;;6.15;;
57441;SDS011;43284;47.042;15.498;2023-07-02T05:39:07;10.07;;;5.97;;
57441;SDS011;43284;47.042;15.498;2023-07-02T05:41:33;10.60;;;5.82;;
57441;SDS011;43284;47.042;15.498;2023-07-02T05:43:58;10.20;;;5.78;;
57441;SDS011;43284;47.042;15.498;2023-07-02T05:46:25;9.82;;;5.20;;
57441;SDS011;43284;47.042;15.498;2023-07-02T05:48:51;11.02;;;5.18;;
57441;SDS011;43284;47.042;15.498;2023-07-02T05:51:25;9.60;;;5.80;;
57441;SDS011;43284;47.042;15.498;2023-07-02T05:53:51;10.10;;;5.90;;
57441;SDS011;43284;47.042;15.498;2023-07-02T05:56:17;9.98;;;5.53;;
57441;SDS011;43284;47.042;15.498;2023-07-02T05:58:43;7.38;;;4.43;;
57441;SDS011;43284;47.042;15.498;2023-07-02T06:01:10;11.30;;;6.22;;
57441;SDS011;43284;47.042;15.498;2023-07-02T06:03:35;10.75;;;6.05;;
57441;SDS011;43284;47.042;15.498;2023-07-02T06:06:02;11.10;;;5.90;;
57441;SDS011;43284;47.042;15.498;2023-07-02T06:08:28;9.68;;;5.75;;
57441;SDS011;43284;47.042;15.498;2023-07-02T06:10:53;10.77;;;5.32;;
57441;SDS011;43284;47.042;15.498;2023-07-02T06:13:19;10.40;;;5.95;;
57441;SDS011;43284;47.042;15.498;2023-07-02T06:15:44;9.35;;;5.57;;
57441;SDS011;43284;47.042;15.498;2023-07-02T06:18:12;8.80;;;5.75;;
57441;SDS011;43284;47.042;15.498;2023-07-02T06:20:37;12.77;;;6.65;;
57441;SDS011;43284;47.042;15.498;2023-07-02T06:23:03;10.25;;;6.40;;
57441;SDS011;43284;47.042;15.498;2023-07-02T06:25:28;13.13;;;5.88;;
57441;SDS011;43284;47.042;15.498;2023-07-02T06:27:54;12.40;;;6.60;;
57441;SDS011;43284;47.042;15.498;2023-07-02T06:30:23;10.45;;;6.43;;
57441;SDS011;43284;47.042;15.498;2023-07-02T06:32:51;11.52;;;6.30;;
57441;SDS011;43284;47.042;15.498;2023-07-02T06:35:18;8.48;;;5.53;;
57441;SDS011;43284;47.042;15.498;2023-07-02T06:37:44;11.98;;;5.05;;
57441;SDS011;43284;47.042;15.498;2023-07-02T06:40:10;10.18;;;6.50;;
57441;SDS011;43284;47.042;15.498;2023-07-02T06:42:35;8.98;;;5.50;;
57441;SDS011;43284;47.042;15.498;2023-07-02T06:45:01;10.75;;;6.03;;
57441;SDS011;43284;47.042;15.498;2023-07-02T06:47:28;8.70;;;5.80;;
57441;SDS011;43284;47.042;15.498;2023-07-02T06:49:53;9.02;;;5.40;;
57441;SDS011;43284;47.042;15.498;2023-07-02T06:52:19;10.73;;;5.85;;
57441;SDS011;43284;47.042;15.498;2023-07-02T06:54:45;8.20;;;5.20;;
57441;SDS011;43284;47.042;15.498;2023-07-02T06:57:10;8.93;;;5.50;;
57441;SDS011;43284;47.042;15.498;2023-07-02T06:59:37;10.18;;;5.65;;
57441;SDS011;43284;47.042;15.498;2023-07-02T07:02:02;11.27;;;5.63;;
57441;SDS011;43284;47.042;15.498;2023-07-02T07:04:28;8.45;;;5.63;;
57441;SDS011;43284;47.042;15.498;2023-07-02T07:06:54;9.25;;;5.65;;
57441;SDS011;43284;47.042;15.498;2023-07-02T07:09:20;8.73;;;5.80;;
57441;SDS011;43284;47.042;15.498;2023-07-02T07:11:46;8.88;;;5.13;;
57441;SDS011;43284;47.042;15.498;2023-07-02T07:14:12;9.27;;;5.70;;
57441;SDS011;43284;47.042;15.498;2023-07-02T07:16:37;9.52;;;5.30;;
57441;SDS011;43284;47.042;15.498;2023-07-02T07:19:03;13.15;;;6.10;;
57441;SDS011;43284;47.042;15.498;2023-07-02T07:21:28;10.32;;;6.15;;
57441;SDS011;43284;47.042;15.498;2023-07-02T07:23:54;8.70;;;5.50;;
57441;SDS011;43284;47.042;15.498;2023-07-02T07:26:19;8.88;;;5.78;;
57441;SDS011;43284;47.042;15.498;2023-07-02T07:28:45;10.15;;;5.53;;
57441;SDS011;43284;47.042;15.498;2023-07-02T07:31:10;9.90;;;5.38;;
57441;SDS011;43284;47.042;15.498;2023-07-02T07:33:36;11.52;;;6.20;;
57441;SDS011;43284;47.042;15.498;2023-07-02T07:36:01;9.18;;;5.47;;
57441;SDS011;43284;47.042;15.498;2023-07-02T07:38:27;12.25;;;5.18;;
57441;SDS011;43284;47.042;15.498;2023-07-02T07:40:52;7.80;;;4.95;;
57441;SDS011;43284;47.042;15.498;2023-07-02T07:43:18;6.78;;;4.13;;
57441;SDS011;43284;47.042;15.498;2023-07-02T07:45:43;5.93;;;3.88;;
57441;SDS011;43284;47.042;15.498;2023-07-02T07:48:09;6.40;;;3.58;;
57441;SDS011;43284;47.042;15.498;2023-07-02T07:50:34;6.05;;;3.92;;
57441;SDS011;43284;47.042;15.498;2023-07-02T07:53:00;7.25;;;3.33;;
57441;SDS011;43284;47.042;15.498;2023-07-02T07:55:25;6.28;;;3.80;;
57441;SDS011;43284;47.042;15.498;2023-07-02T07:57:51;3.65;;;2.53;;
57441;SDS011;43284;47.042;15.498;2023-07-02T08:00:17;6.00;;;3.72;;
57441;SDS011;43284;47.042;15.498;2023-07-02T08:02:46;4.60;;;2.90;;
57441;SDS011;43284;47.042;15.498;2023-07-02T08:05:12;6.20;;;3.05;;
57441;SDS011;43284;47.042;15.498;2023-07-02T08:07:38;6.50;;;3.45;;
57441;SDS011;43284;47.042;15.498;2023-07-02T08:10:04;5.38;;;2.90;;
57441;SDS011;43284;47.042;15.498;2023-07-02T08:12:30;4.65;;;2.70;;
57441;SDS011;43284;47.042;15.498;2023-07-02T08:14:56;4.10;;;2.63;;
57441;SDS011;43284;47.042;15.498;2023-07-02T08:17:21;5.43;;;2.78;;
57441;SDS011;43284;47.042;15.498;2023-07-02T08:19:47;6.25;;;3.10;;
57441;SDS011;43284;47.042;15.498;2023-07-02T08:22:12;5.57;;;3.05;;
57441;SDS011;43284;47.042;15.498;2023-07-02T08:24:38;5.25;;;3.17;;
57441;SDS011;43284;47.042;15.498;2023-07-02T08:27:04;3.78;;;2.78;;
57441;SDS011;43284;47.042;15.498;2023-07-02T08:29:30;3.63;;;2.47;;
57441;SDS011;43284;47.042;15.498;2023-07-02T08:31:56;3.25;;;2.42;;
57441;SDS011;43284;47.042;15.498;2023-07-02T08:34:21;3.35;;;2.40;;
57441;SDS011;43284;47.042;15.498;2023-07-02T08:36:47;4.05;;;2.47;;
57441;SDS011;43284;47.042;15.498;2023-07-02T08:39:12;4.10;;;2.47;;
57441;SDS011;43284;47.042;15.498;2023-07-02T08:41:43;3.90;;;1.95;;
57441;SDS011;43284;47.042;15.498;2023-07-02T08:44:11;3.05;;;1.77;;
57441;SDS011;43284;47.042;15.498;2023-07-02T08:46:38;3.03;;;1.70;;
57441;SDS011;43284;47.042;15.498;2023-07-02T08:49:04;3.05;;;1.90;;
57441;SDS011;43284;47.042;15.498;2023-07-02T08:51:30;3.75;;;1.73;;
57441;SDS011;43284;47.042;15.498;2023-07-02T08:53:55;2.20;;;1.20;;
57441;SDS011;43284;47.042;15.498;2023-07-02T08:56:21;1.98;;;1.20;;
57441;SDS011;43284;47.042;15.498;2023-07-02T08:58:46;2.05;;;1.40;;
57441;SDS011;43284;47.042;15.498;2023-07-02T09:01:13;4.30;;;1.50;;
57441;SDS011;43284;47.042;15.498;2023-07-02T09:03:39;3.20;;;1.27;;
57441;SDS011;43284;47.042;15.498;2023-07-02T09:06:06;2.58;;;1.60;;
57441;SDS011;43284;47.042;15.498;2023-07-02T09:08:33;2.67;;;1.38;;
57441;SDS011;43284;47.042;15.498;2023-07-02T09:11:07;1.50;;;1.27;;
57441;SDS011;43284;47.042;15.498;2023-07-02T09:13:48;1.13;;;1.02;;
57441;SDS011;43284;47.042;15.498;2023-07-02T09:16:25;2.47;;;1.05;;
57441;SDS011;43284;47.042;15.498;2023-07-02T09:18:57;2.20;;;1.20;;
57441;SDS011;43284;47.042;15.498;2023-07-02T09:21:43;1.88;;;1.17;;
57441;SDS011;43284;47.042;15.498;2023-07-02T09:26:50;1.48;;;1.02;;
57441;SDS011;43284;47.042;15.498;2023-07-02T09:29:24;1.33;;;1.10;;
57441;SDS011;43284;47.042;15.498;2023-07-02T09:34:19;1.70;;;1.35;;
57441;SDS011;43284;47.042;15.498;2023-07-02T09:36:44;1.90;;;1.27;;
57441;SDS011;43284;47.042;15.498;2023-07-02T09:39:14;1.50;;;1.30;;
57441;SDS011;43284;47.042;15.498;2023-07-02T09:41:44;2.95;;;1.70;;
57441;SDS011;43284;47.042;15.498;2023-07-02T09:44:12;4.03;;;1.42;;
57441;SDS011;43284;47.042;15.498;2023-07-02T09:46:41;2.00;;;1.25;;
57441;SDS011;43284;47.042;15.498;2023-07-02T09:49:13;1.90;;;1.40;;
57441;SDS011;43284;47.042;15.498;2023-07-02T09:51:42;1.75;;;1.30;;
57441;SDS011;43284;47.042;15.498;2023-07-02T09:54:08;1.90;;;1.38;;
57441;SDS011;43284;47.042;15.498;2023-07-02T09:56:35;2.72;;;2.03;;
57441;SDS011;43284;47.042;15.498;2023-07-02T09:59:00;3.15;;;2.03;;
57441;SDS011;43284;47.042;15.498;2023-07-02T10:01:26;3.47;;;1.90;;
57441;SDS011;43284;47.042;15.498;2023-07-02T10:03:52;2.33;;;1.58;;
57441;SDS011;43284;47.042;15.498;2023-07-02T10:06:17;2.35;;;1.75;;
57441;SDS011;43284;47.042;15.498;2023-07-02T10:08:55;3.45;;;1.85;;
57441;SDS011;43284;47.042;15.498;2023-07-02T10:11:21;4.70;;;2.00;;
57441;SDS011;43284;47.042;15.498;2023-07-02T10:14:00;3.78;;;2.03;;
57441;SDS011;43284;47.042;15.498;2023-07-02T10:16:25;2.35;;;1.70;;
57441;SDS011;43284;47.042;15.498;2023-07-02T10:19:07;4.80;;;2.10;;
57441;SDS011;43284;47.042;15.498;2023-07-02T10:21:36;3.47;;;2.40;;
57441;SDS011;43284;47.042;15.498;2023-07-02T10:24:15;3.70;;;2.03;;
57441;SDS011;43284;47.042;15.498;2023-07-02T10:26:58;4.75;;;2.35;;
57441;SDS011;43284;47.042;15.498;2023-07-02T10:29:25;3.33;;;2.10;;
57441;SDS011;43284;47.042;15.498;2023-07-02T10:31:56;2.60;;;1.67;;
57441;SDS011;43284;47.042;15.498;2023-07-02T10:34:29;3.88;;;2.28;;
57441;SDS011;43284;47.042;15.498;2023-07-02T10:36:56;2.17;;;1.33;;
57441;SDS011;43284;47.042;15.498;2023-07-02T10:39:22;2.70;;;1.88;;
57441;SDS011;43284;47.042;15.498;2023-07-02T10:41:47;5.78;;;2.10;;
57441;SDS011;43284;47.042;15.498;2023-07-02T10:44:14;3.65;;;2.20;;
57441;SDS011;43284;47.042;15.498;2023-07-02T10:46:44;2.85;;;2.05;;
57441;SDS011;43284;47.042;15.498;2023-07-02T10:49:14;3.28;;;2.17;;
57441;SDS011;43284;47.042;15.498;2023-07-02T10:51:42;3.58;;;2.10;;
57441;SDS011;43284;47.042;15.498;2023-07-02T10:54:08;3.92;;;2.00;;
57441;SDS011;43284;47.042;15.498;2023-07-02T10:56:34;2.80;;;2.10;;
57441;SDS011;43284;47.042;15.498;2023-07-02T10:59:00;3.60;;;2.10;;
57441;SDS011;43284;47.042;15.498;2023-07-02T11:01:29;4.43;;;2.30;;
57441;SDS011;43284;47.042;15.498;2023-07-02T11:03:59;2.85;;;1.90;;
57441;SDS011;43284;47.042;15.498;2023-07-02T11:06:32;3.55;;;1.92;;
57441;SDS011;43284;47.042;15.498;2023-07-02T11:08:58;2.72;;;2.00;;
57441;SDS011;43284;47.042;15.498;2023-07-02T11:11:25;3.78;;;2.10;;
57441;SDS011;43284;47.042;15.498;2023-07-02T11:13:51;2.58;;;1.83;;
57441;SDS011;43284;47.042;15.498;2023-07-02T11:16:27;3.13;;;1.95;;
57441;SDS011;43284;47.042;15.498;2023-07-02T11:19:05;2.58;;;1.58;;
57441;SDS011;43284;47.042;15.498;2023-07-02T11:21:35;3.60;;;1.77;;
57441;SDS011;43284;47.042;15.498;2023-07-02T11:24:02;3.17;;;1.75;;
57441;SDS011;43284;47.042;15.498;2023-07-02T11:26:39;2.58;;;1.70;;
57441;SDS011;43284;47.042;15.498;2023-07-02T11:29:12;2.50;;;1.75;;
57441;SDS011;43284;47.042;15.498;2023-07-02T11:31:42;3.25;;;2.08;;
57441;SDS011;43284;47.042;15.498;2023-07-02T11:34:15;3.13;;;1.98;;
57441;SDS011;43284;47.042;15.498;2023-07-02T11:36:43;2.63;;;1.90;;
57441;SDS011;43284;47.042;15.498;2023-07-02T11:39:08;3.25;;;2.15;;
57441;SDS011;43284;47.042;15.498;2023-07-02T11:41:41;3.42;;;1.58;;
57441;SDS011;43284;47.042;15.498;2023-07-02T11:44:08;2.25;;;1.67;;
57441;SDS011;43284;47.042;15.498;2023-07-02T11:46:34;2.60;;;1.73;;
57441;SDS011;43284;47.042;15.498;2023-07-02T11:49:03;4.45;;;1.83;;
57441;SDS011;43284;47.042;15.498;2023-07-02T11:51:30;1.88;;;1.60;;
57441;SDS011;43284;47.042;15.498;2023-07-02T11:53:56;3.03;;;2.00;;
57441;SDS011;43284;47.042;15.498;2023-07-02T11:56:23;1.92;;;1.35;;
57441;SDS011;43284;47.042;15.498;2023-07-02T11:58:48;2.25;;;1.52;;
57441;SDS011;43284;47.042;15.498;2023-07-02T12:01:14;2.58;;;1.67;;
57441;SDS011;43284;47.042;15.498;2023-07-02T12:03:40;3.25;;;1.90;;
57441;SDS011;43284;47.042;15.498;2023-07-02T12:06:08;3.67;;;1.48;;
57441;SDS011;43284;47.042;15.498;2023-07-02T12:08:34;1.95;;;1.45;;
57441;SDS011;43284;47.042;15.498;2023-07-02T12:11:02;3.65;;;1.75;;
57441;SDS011;43284;47.042;15.498;2023-07-02T12:13:28;3.05;;;1.80;;
57441;SDS011;43284;47.042;15.498;2023-07-02T12:15:54;2.67;;;1.90;;
57441;SDS011;43284;47.042;15.498;2023-07-02T12:18:19;2.20;;;1.73;;
57441;SDS011;43284;47.042;15.498;2023-07-02T12:20:45;2.20;;;1.50;;
57441;SDS011;43284;47.042;15.498;2023-07-02T12:23:11;1.98;;;1.58;;
57441;SDS011;43284;47.042;15.498;2023-07-02T12:25:37;2.75;;;1.70;;
57441;SDS011;43284;47.042;15.498;2023-07-02T12:28:03;1.67;;;1.25;;
57441;SDS011;43284;47.042;15.498;2023-07-02T12:30:29;1.98;;;1.55;;
57441;SDS011;43284;47.042;15.498;2023-07-02T12:32:55;2.20;;;1.50;;
57441;SDS011;43284;47.042;15.498;2023-07-02T12:35:21;2.53;;;1.88;;
57441;SDS011;43284;47.042;15.498;2023-07-02T12:37:47;4.22;;;1.85;;
57441;SDS011;43284;47.042;15.498;2023-07-02T12:40:15;2.88;;;1.85;;
57441;SDS011;43284;47.042;15.498;2023-07-02T12:42:41;2.20;;;1.70;;
57441;SDS011;43284;47.042;15.498;2023-07-02T12:45:07;3.05;;;2.03;;
57441;SDS011;43284;47.042;15.498;2023-07-02T12:47:41;2.15;;;1.50;;
57441;SDS011;43284;47.042;15.498;2023-07-02T12:50:10;3.40;;;1.67;;
57441;SDS011;43284;47.042;15.498;2023-07-02T12:52:36;2.88;;;1.73;;
57441;SDS011;43284;47.042;15.498;2023-07-02T12:55:02;2.97;;;1.60;;
57441;SDS011;43284;47.042;15.498;2023-07-02T12:57:29;1.65;;;1.40;;
57441;SDS011;43284;47.042;15.498;2023-07-02T12:59:54;2.33;;;1.70;;
57441;SDS011;43284;47.042;15.498;2023-07-02T13:02:21;1.90;;;1.63;;
57441;SDS011;43284;47.042;15.498;2023-07-02T13:04:47;2.30;;;1.80;;
57441;SDS011;43284;47.042;15.498;2023-07-02T13:07:13;2.08;;;1.42;;
57441;SDS011;43284;47.042;15.498;2023-07-02T13:09:38;4.38;;;1.60;;
57441;SDS011;43284;47.042;15.498;2023-07-02T13:12:04;2.35;;;1.45;;
57441;SDS011;43284;47.042;15.498;2023-07-02T13:14:30;2.28;;;1.50;;
57441;SDS011;43284;47.042;15.498;2023-07-02T13:16:56;1.30;;;1.20;;
57441;SDS011;43284;47.042;15.498;2023-07-02T13:19:24;3.00;;;1.10;;
57441;SDS011;43284;47.042;15.498;2023-07-02T13:21:49;1.40;;;1.05;;
57441;SDS011;43284;47.042;15.498;2023-07-02T13:24:15;2.15;;;1.20;;
57441;SDS011;43284;47.042;15.498;2023-07-02T13:26:41;1.95;;;1.17;;
57441;SDS011;43284;47.042;15.498;2023-07-02T13:29:06;1.52;;;1.20;;
57441;SDS011;43284;47.042;15.498;2023-07-02T13:31:31;1.95;;;1.42;;
57441;SDS011;43284;47.042;15.498;2023-07-02T13:33:57;1.92;;;1.70;;
57441;SDS011;43284;47.042;15.498;2023-07-02T13:36:23;2.33;;;1.60;;
57441;SDS011;43284;47.042;15.498;2023-07-02T13:38:48;2.10;;;1.52;;
57441;SDS011;43284;47.042;15.498;2023-07-02T13:41:14;2.53;;;1.50;;
57441;SDS011;43284;47.042;15.498;2023-07-02T13:43:39;1.90;;;1.58;;
57441;SDS011;43284;47.042;15.498;2023-07-02T13:46:05;2.92;;;1.90;;
57441;SDS011;43284;47.042;15.498;2023-07-02T13:48:31;2.70;;;1.70;;
57441;SDS011;43284;47.042;15.498;2023-07-02T13:50:56;2.92;;;1.92;;
57441;SDS011;43284;47.042;15.498;2023-07-02T13:53:22;2.80;;;1.58;;
57441;SDS011;43284;47.042;15.498;2023-07-02T13:55:47;1.85;;;1.45;;
57441;SDS011;43284;47.042;15.498;2023-07-02T13:58:13;2.58;;;2.03;;
57441;SDS011;43284;47.042;15.498;2023-07-02T14:00:38;3.40;;;2.10;;
57441;SDS011;43284;47.042;15.498;2023-07-02T14:03:04;2.70;;;1.85;;
57441;SDS011;43284;47.042;15.498;2023-07-02T14:05:30;3.75;;;2.13;;
57441;SDS011;43284;47.042;15.498;2023-07-02T14:07:56;2.75;;;2.00;;
57441;SDS011;43284;47.042;15.498;2023-07-02T14:10:22;2.92;;;1.90;;
57441;SDS011;43284;47.042;15.498;2023-07-02T14:12:47;3.05;;;1.95;;
57441;SDS011;43284;47.042;15.498;2023-07-02T14:15:13;3.95;;;1.73;;
57441;SDS011;43284;47.042;15.498;2023-07-02T14:17:38;3.08;;;1.70;;
57441;SDS011;43284;47.042;15.498;2023-07-02T14:20:05;3.78;;;2.00;;
57441;SDS011;43284;47.042;15.498;2023-07-02T14:22:32;3.17;;;1.90;;
57441;SDS011;43284;47.042;15.498;2023-07-02T14:24:58;3.75;;;1.90;;
57441;SDS011;43284;47.042;15.498;2023-07-02T14:27:23;2.92;;;1.85;;
57441;SDS011;43284;47.042;15.498;2023-07-02T14:29:49;3.50;;;2.08;;
57441;SDS011;43284;47.042;15.498;2023-07-02T14:32:14;3.17;;;2.25;;
57441;SDS011;43284;47.042;15.498;2023-07-02T14:34:40;2.28;;;1.85;;
57441;SDS011;43284;47.042;15.498;2023-07-02T14:37:06;4.18;;;2.10;;
57441;SDS011;43284;47.042;15.498;2023-07-02T14:39:32;2.80;;;2.03;;